Time;durP1;ratioP1;P1;durP2;ratioP2;P2;SDS_P1;SDS_P2;PMS_P1;PMS_P2;Temp;Humidity;BMP_temperature;BMP_pressure;BME280_temperature;BME280_humidity;BME280_pressure;Samples;Min_cycle;Max_cycle;Signal;HPM_P1;HPM_P2
2023/09/03 00:02:14;;;;;;;5.15;4.10;;;;;;;;;;5062913;28;20155;-64
2023/09/03 00:04:40;;;;;;;4.78;3.70;;;;;;;;;;5071483;28;20040;-65
2023/09/03 00:07:06;;;;;;;5.57;3.90;;;;;;;;;;5071655;28;20453;-65
2023/09/03 00:09:33;;;;;;;5.80;3.70;;;;;;;;;;5071569;28;20080;-64
2023/09/03 00:11:59;;;;;;;5.40;3.22;;;;;;;;;;5064920;28;20052;-64
2023/09/03 00:14:25;;;;;;;4.60;3.60;;;;;;;;;;5069084;28;20504;-64
2023/09/03 00:16:51;;;;;;;4.32;3.75;;;;;;;;;;5071763;28;20044;-64
2023/09/03 00:19:17;;;;;;;4.97;3.92;;;;;;;;;;5071585;28;20036;-64
2023/09/03 00:21:44;;;;;;;4.68;3.92;;;;;;;;;;5066925;28;20111;-64
2023/09/03 00:24:10;;;;;;;4.07;3.30;;;;;;;;;;5067175;28;20047;-64
2023/09/03 00:26:36;;;;;;;4.90;4.20;;;;;;;;;;5071741;28;20112;-64
2023/09/03 00:29:02;;;;;;;6.38;4.72;;;;;;;;;;5071578;28;20040;-65
2023/09/03 00:31:28;;;;;;;7.13;4.55;;;;;;;;;;5069112;28;20059;-64
2023/09/03 00:33:54;;;;;;;6.13;4.55;;;;;;;;;;5064231;28;20043;-65
2023/09/03 00:36:20;;;;;;;5.28;4.60;;;;;;;;;;5071506;28;20096;-64
2023/09/03 00:38:49;;;;;;;6.88;5.00;;;;;;;;;;5071209;28;20045;-64
2023/09/03 00:41:15;;;;;;;7.13;4.97;;;;;;;;;;5070875;28;20032;-64
2023/09/03 00:43:41;;;;;;;8.60;5.03;;;;;;;;;;5062985;28;20075;-65
2023/09/03 00:46:08;;;;;;;5.40;4.80;;;;;;;;;;5071483;28;20036;-64
2023/09/03 00:48:34;;;;;;;5.80;4.45;;;;;;;;;;5088126;22;20564;-65
2023/09/03 00:51:02;;;;;;;6.70;5.15;;;;;;;;;;5064249;28;20406;-62
2023/09/03 00:53:30;;;;;;;7.22;5.03;;;;;;;;;;5068439;28;20041;-62
2023/09/03 00:55:57;;;;;;;7.25;5.82;;;;;;;;;;5085004;28;20047;-62
2023/09/03 00:58:23;;;;;;;6.00;5.07;;;;;;;;;;5091503;28;20061;-62
2023/09/03 01:00:49;;;;;;;5.35;4.35;;;;;;;;;;5085250;28;20405;-62
2023/09/03 01:03:16;;;;;;;4.15;3.53;;;;;;;;;;5079049;28;20401;-62
2023/09/03 01:05:42;;;;;;;6.70;5.65;;;;;;;;;;5094789;28;20044;-62
2023/09/03 01:08:08;;;;;;;8.05;5.38;;;;;;;;;;5094825;28;20043;-62
2023/09/03 01:10:42;;;;;;;6.50;5.03;;;;;;;;;;5091007;28;20224;-62
2023/09/03 01:13:32;;;;;;;8.20;5.38;;;;;;;;;;5082966;28;20120;-62
2023/09/03 01:16:00;;;;;;;5.57;4.80;;;;;;;;;;5054944;28;20113;-62
2023/09/03 01:18:27;;;;;;;6.45;4.80;;;;;;;;;;5078807;28;20062;-62
2023/09/03 01:21:11;;;;;;;5.65;4.90;;;;;;;;;;5088077;28;20040;-62
2023/09/03 01:23:37;;;;;;;5.28;4.10;;;;;;;;;;5094758;28;20040;-61
2023/09/03 01:26:22;;;;;;;5.20;4.07;;;;;;;;;;5094330;28;20061;-62
2023/09/03 01:28:49;;;;;;;5.47;4.55;;;;;;;;;;5085745;28;20079;-61
2023/09/03 01:31:17;;;;;;;5.80;4.60;;;;;;;;;;5077830;28;20094;-62
2023/09/03 01:33:45;;;;;;;5.93;4.32;;;;;;;;;;5056425;28;20094;-62
2023/09/03 01:36:12;;;;;;;5.60;4.97;;;;;;;;;;5074403;28;20041;-62
2023/09/03 01:38:38;;;;;;;7.35;5.72;;;;;;;;;;5081865;28;20468;-62
2023/09/03 01:41:05;;;;;;;9.35;7.03;;;;;;;;;;5079341;28;20044;-61
2023/09/03 01:43:31;;;;;;;6.65;5.25;;;;;;;;;;5074218;28;20075;-62
2023/09/03 01:46:03;;;;;;;7.70;4.97;;;;;;;;;;5074438;28;20060;-62
2023/09/03 01:48:48;;;;;;;6.22;4.93;;;;;;;;;;5080619;28;20048;-62
2023/09/03 01:51:36;;;;;;;6.32;4.32;;;;;;;;;;5090097;28;20048;-61
2023/09/03 01:54:08;;;;;;;6.30;4.72;;;;;;;;;;5094296;28;20046;-62
2023/09/03 01:56:37;;;;;;;5.68;3.92;;;;;;;;;;5094012;28;20043;-62
2023/09/03 01:59:07;;;;;;;5.93;4.63;;;;;;;;;;5063693;28;20045;-62
2023/09/03 02:01:33;;;;;;;5.70;4.90;;;;;;;;;;5088393;28;20036;-62
2023/09/03 02:04:00;;;;;;;7.20;4.90;;;;;;;;;;5073874;28;20064;-62
2023/09/03 02:06:26;;;;;;;6.85;5.50;;;;;;;;;;5073126;28;20044;-62
2023/09/03 02:08:52;;;;;;;6.85;5.13;;;;;;;;;;5064879;28;20044;-61
2023/09/03 02:11:18;;;;;;;5.75;4.40;;;;;;;;;;5057835;28;20044;-62
2023/09/03 02:13:44;;;;;;;6.40;4.82;;;;;;;;;;5073462;28;20032;-62
2023/09/03 02:16:10;;;;;;;4.97;4.22;;;;;;;;;;5071896;28;20483;-61
2023/09/03 02:18:36;;;;;;;6.40;4.63;;;;;;;;;;5084551;28;20051;-62
2023/09/03 02:21:01;;;;;;;7.53;5.63;;;;;;;;;;5081743;28;20041;-62
2023/09/03 02:23:27;;;;;;;10.27;6.10;;;;;;;;;;5055726;28;20046;-61
2023/09/03 02:26:01;;;;;;;7.13;5.50;;;;;;;;;;5073696;28;20036;-62
2023/09/03 02:28:27;;;;;;;8.95;5.90;;;;;;;;;;5084387;28;20043;-62
2023/09/03 02:30:53;;;;;;;8.25;5.75;;;;;;;;;;5081688;28;20148;-61
2023/09/03 02:33:19;;;;;;;7.80;5.72;;;;;;;;;;5075589;28;20121;-62
2023/09/03 02:35:45;;;;;;;6.20;4.70;;;;;;;;;;5073172;28;20047;-61
2023/09/03 02:38:11;;;;;;;8.57;5.22;;;;;;;;;;5076461;28;20037;-61
2023/09/03 02:40:37;;;;;;;6.10;4.25;;;;;;;;;;5063846;28;20048;-61
2023/09/03 02:43:06;;;;;;;7.07;5.03;;;;;;;;;;5072912;28;20052;-61
2023/09/03 02:45:32;;;;;;;11.63;6.20;;;;;;;;;;5073349;28;20044;-62
2023/09/03 02:47:58;;;;;;;6.28;5.05;;;;;;;;;;5076235;28;20040;-62
2023/09/03 02:50:24;;;;;;;7.10;5.60;;;;;;;;;;5085517;28;20051;-62
2023/09/03 02:52:50;;;;;;;6.15;5.10;;;;;;;;;;5074866;28;20118;-62
2023/09/03 02:55:16;;;;;;;9.52;7.32;;;;;;;;;;5093152;28;20043;-62
2023/09/03 02:57:42;;;;;;;8.32;6.07;;;;;;;;;;5088506;28;20089;-62
2023/09/03 03:00:08;;;;;;;10.65;5.80;;;;;;;;;;5080658;28;20452;-62
2023/09/03 03:02:34;;;;;;;6.15;5.40;;;;;;;;;;5072524;28;20040;-62
2023/09/03 03:05:00;;;;;;;6.55;5.30;;;;;;;;;;5072845;28;20174;-61
2023/09/03 03:07:26;;;;;;;8.50;5.93;;;;;;;;;;5074718;28;20490;-61
2023/09/03 03:09:53;;;;;;;7.80;5.60;;;;;;;;;;5080978;28;20060;-62
2023/09/03 03:12:19;;;;;;;8.48;6.35;;;;;;;;;;5054212;28;20509;-61
2023/09/03 03:14:45;;;;;;;9.25;6.43;;;;;;;;;;5072371;28;20505;-62
2023/09/03 03:17:11;;;;;;;8.10;6.07;;;;;;;;;;5073880;28;20397;-62
2023/09/03 03:19:37;;;;;;;7.55;6.18;;;;;;;;;;5081143;28;20036;-62
2023/09/03 03:22:03;;;;;;;6.55;5.20;;;;;;;;;;5054142;28;20040;-62
2023/09/03 03:24:29;;;;;;;8.07;6.65;;;;;;;;;;5071745;28;20043;-62
2023/09/03 03:26:55;;;;;;;7.55;6.30;;;;;;;;;;5053830;28;20044;-62
2023/09/03 03:29:21;;;;;;;7.53;5.90;;;;;;;;;;5048149;28;20083;-61
2023/09/03 03:31:47;;;;;;;7.38;5.10;;;;;;;;;;5072473;28;20033;-61
2023/09/03 03:34:13;;;;;;;6.40;5.05;;;;;;;;;;5059516;28;20043;-61
2023/09/03 03:36:39;;;;;;;6.75;4.93;;;;;;;;;;5062803;28;20040;-61
2023/09/03 03:39:06;;;;;;;6.50;5.60;;;;;;;;;;5084691;28;20047;-63
2023/09/03 03:41:32;;;;;;;6.57;5.47;;;;;;;;;;5080652;28;20035;-62
2023/09/03 03:43:59;;;;;;;9.95;5.43;;;;;;;;;;5080069;28;20119;-62
2023/09/03 03:46:25;;;;;;;7.03;5.28;;;;;;;;;;5072186;28;20460;-62
2023/09/03 03:48:51;;;;;;;6.95;5.53;;;;;;;;;;5073503;28;20043;-62
2023/09/03 03:51:17;;;;;;;6.20;5.40;;;;;;;;;;5064576;28;20055;-62
2023/09/03 03:53:43;;;;;;;5.68;4.45;;;;;;;;;;5071864;28;20084;-62
2023/09/03 03:56:10;;;;;;;5.18;4.50;;;;;;;;;;5071738;28;20047;-62
2023/09/03 03:58:37;;;;;;;6.85;4.90;;;;;;;;;;5053548;28;20067;-62
2023/09/03 04:01:16;;;;;;;9.65;6.60;;;;;;;;;;5082102;28;20109;-62
2023/09/03 04:03:42;;;;;;;9.80;6.50;;;;;;;;;;5083888;28;20032;-62
2023/09/03 04:06:08;;;;;;;7.82;6.25;;;;;;;;;;5082307;28;20032;-62
2023/09/03 04:08:36;;;;;;;7.97;5.60;;;;;;;;;;5088426;28;20512;-62
2023/09/03 04:11:03;;;;;;;6.78;5.68;;;;;;;;;;5091536;28;20507;-62
2023/09/03 04:13:29;;;;;;;7.18;5.30;;;;;;;;;;5091176;28;20417;-62
2023/09/03 04:15:55;;;;;;;6.78;5.15;;;;;;;;;;5087807;28;20040;-61
2023/09/03 04:18:22;;;;;;;6.75;5.18;;;;;;;;;;5082167;28;20131;-62
2023/09/03 04:20:55;;;;;;;9.20;5.80;;;;;;;;;;5080815;28;20032;-62
2023/09/03 04:23:21;;;;;;;7.38;5.32;;;;;;;;;;5073958;28;20033;-62
2023/09/03 04:25:47;;;;;;;6.15;4.88;;;;;;;;;;5073452;28;20032;-62
2023/09/03 04:28:14;;;;;;;7.70;5.30;;;;;;;;;;5079548;28;20036;-62
2023/09/03 04:30:40;;;;;;;6.75;5.18;;;;;;;;;;5078891;28;20082;-62
2023/09/03 04:33:07;;;;;;;6.10;5.10;;;;;;;;;;5075785;28;20549;-62
2023/09/03 04:35:33;;;;;;;6.47;5.10;;;;;;;;;;5071400;28;20040;-62
2023/09/03 04:37:59;;;;;;;6.18;4.78;;;;;;;;;;5076260;28;20032;-62
2023/09/03 04:40:25;;;;;;;5.30;4.45;;;;;;;;;;5090032;28;20085;-62
2023/09/03 04:42:51;;;;;;;7.03;5.22;;;;;;;;;;5095262;28;20059;-62
2023/09/03 04:45:17;;;;;;;5.75;4.57;;;;;;;;;;5095820;28;20531;-62
2023/09/03 04:47:44;;;;;;;5.10;4.47;;;;;;;;;;5090227;28;20126;-62
2023/09/03 04:50:10;;;;;;;6.90;4.70;;;;;;;;;;5089606;28;20047;-62
2023/09/03 04:52:38;;;;;;;5.75;4.60;;;;;;;;;;5086994;28;20032;-62
2023/09/03 04:55:04;;;;;;;5.90;4.18;;;;;;;;;;5095943;28;20031;-62
2023/09/03 04:57:30;;;;;;;4.68;4.03;;;;;;;;;;5095095;28;20039;-62
2023/09/03 04:59:56;;;;;;;5.40;4.57;;;;;;;;;;5088212;28;20043;-62
2023/09/03 05:02:22;;;;;;;6.75;4.40;;;;;;;;;;5091148;28;20032;-62
2023/09/03 05:04:48;;;;;;;6.80;4.88;;;;;;;;;;5087639;28;20494;-62
2023/09/03 05:07:14;;;;;;;7.65;5.38;;;;;;;;;;5077007;28;20055;-62
2023/09/03 05:09:40;;;;;;;6.72;4.95;;;;;;;;;;5095044;28;20044;-62
2023/09/03 05:12:06;;;;;;;8.02;5.45;;;;;;;;;;5094928;28;20044;-62
2023/09/03 05:14:32;;;;;;;11.73;5.90;;;;;;;;;;5065592;28;20059;-62
2023/09/03 05:16:58;;;;;;;8.77;5.82;;;;;;;;;;5088995;28;20043;-62
2023/09/03 05:19:24;;;;;;;6.93;5.35;;;;;;;;;;5094491;28;20052;-62
2023/09/03 05:21:50;;;;;;;7.30;5.28;;;;;;;;;;5094509;28;20028;-62
2023/09/03 05:24:16;;;;;;;7.78;5.70;;;;;;;;;;5094780;28;20516;-62
2023/09/03 05:26:43;;;;;;;5.55;4.80;;;;;;;;;;5095034;28;20036;-62
2023/09/03 05:29:09;;;;;;;7.90;5.25;;;;;;;;;;5094165;28;20493;-62
2023/09/03 05:31:35;;;;;;;6.40;5.05;;;;;;;;;;5082722;28;20047;-62
2023/09/03 05:34:02;;;;;;;9.32;5.63;;;;;;;;;;5073899;28;20064;-62
2023/09/03 05:36:28;;;;;;;7.53;5.80;;;;;;;;;;5074167;28;20040;-62
2023/09/03 05:38:54;;;;;;;8.50;5.65;;;;;;;;;;5074016;28;20050;-62
2023/09/03 05:41:20;;;;;;;7.18;5.63;;;;;;;;;;5074406;28;20036;-62
2023/09/03 05:43:46;;;;;;;7.90;5.20;;;;;;;;;;5074145;28;20037;-62
2023/09/03 05:46:12;;;;;;;6.95;5.75;;;;;;;;;;5077574;28;20032;-62
2023/09/03 05:48:38;;;;;;;5.93;5.07;;;;;;;;;;5082003;28;20119;-62
2023/09/03 05:51:04;;;;;;;8.23;5.20;;;;;;;;;;5094330;28;20401;-62
2023/09/03 05:53:31;;;;;;;6.22;5.18;;;;;;;;;;5093893;28;20105;-62
2023/09/03 05:56:06;;;;;;;6.30;4.60;;;;;;;;;;5094587;28;20123;-62
2023/09/03 05:58:33;;;;;;;6.30;4.50;;;;;;;;;;5093145;28;20085;-62
2023/09/03 06:00:59;;;;;;;6.65;5.10;;;;;;;;;;5085005;28;20029;-62
2023/09/03 06:03:25;;;;;;;6.93;4.93;;;;;;;;;;5087576;28;20035;-63
2023/09/03 06:05:51;;;;;;;7.50;5.30;;;;;;;;;;5067775;28;20572;-62
2023/09/03 06:08:17;;;;;;;6.07;5.00;;;;;;;;;;5087773;28;20040;-62
2023/09/03 06:10:43;;;;;;;8.43;6.18;;;;;;;;;;5080828;28;20036;-62
2023/09/03 06:13:09;;;;;;;9.70;7.20;;;;;;;;;;5075641;28;20052;-62
2023/09/03 06:15:35;;;;;;;8.30;6.28;;;;;;;;;;5093921;28;20032;-62
2023/09/03 06:18:02;;;;;;;11.07;7.53;;;;;;;;;;5093999;28;20051;-62
2023/09/03 06:20:28;;;;;;;8.70;6.93;;;;;;;;;;5093022;28;20456;-62
2023/09/03 06:22:54;;;;;;;9.35;7.32;;;;;;;;;;5092602;28;20114;-62
2023/09/03 06:25:20;;;;;;;9.95;7.63;;;;;;;;;;5083833;28;20036;-62
2023/09/03 06:27:46;;;;;;;8.85;7.30;;;;;;;;;;5092201;28;20043;-62
2023/09/03 06:30:12;;;;;;;8.30;6.70;;;;;;;;;;5089777;28;20512;-62
2023/09/03 06:32:38;;;;;;;9.75;6.93;;;;;;;;;;5091614;28;20138;-62
2023/09/03 06:35:05;;;;;;;8.85;6.88;;;;;;;;;;5088017;28;20165;-62
2023/09/03 06:37:31;;;;;;;9.07;6.88;;;;;;;;;;5084076;28;20117;-62
2023/09/03 06:39:57;;;;;;;11.75;7.80;;;;;;;;;;5085362;28;20051;-62
2023/09/03 06:42:25;;;;;;;10.13;7.55;;;;;;;;;;5072414;28;20171;-62
2023/09/03 06:44:51;;;;;;;8.10;7.10;;;;;;;;;;5083805;28;20036;-62
2023/09/03 06:47:17;;;;;;;9.13;7.40;;;;;;;;;;5090176;28;20504;-62
2023/09/03 06:49:43;;;;;;;10.38;7.75;;;;;;;;;;5104235;22;20108;-65
2023/09/03 06:52:09;;;;;;;9.43;7.57;;;;;;;;;;5091896;28;20036;-65
2023/09/03 06:54:35;;;;;;;9.25;7.50;;;;;;;;;;5090446;28;20447;-65
2023/09/03 06:57:01;;;;;;;7.68;6.88;;;;;;;;;;5091289;28;20119;-65
2023/09/03 06:59:27;;;;;;;8.82;7.90;;;;;;;;;;5091634;28;20085;-65
2023/09/03 07:01:53;;;;;;;10.25;7.25;;;;;;;;;;5089106;28;20044;-65
2023/09/03 07:04:19;;;;;;;8.88;7.30;;;;;;;;;;5089902;28;20038;-65
2023/09/03 07:06:45;;;;;;;10.48;7.85;;;;;;;;;;5090663;28;20036;-66
2023/09/03 07:09:11;;;;;;;9.35;7.88;;;;;;;;;;5090434;28;20047;-65
2023/09/03 07:11:37;;;;;;;12.25;8.60;;;;;;;;;;5089010;28;20512;-66
2023/09/03 07:14:03;;;;;;;9.90;7.93;;;;;;;;;;5071949;28;20036;-66
2023/09/03 07:16:30;;;;;;;12.23;7.68;;;;;;;;;;5090077;28;20130;-66
2023/09/03 07:18:56;;;;;;;8.85;7.85;;;;;;;;;;5092172;28;20048;-66
2023/09/03 07:21:22;;;;;;;9.50;7.63;;;;;;;;;;5092944;28;20084;-65
2023/09/03 07:23:48;;;;;;;10.38;7.18;;;;;;;;;;5092635;28;20038;-65
2023/09/03 07:26:14;;;;;;;9.07;6.82;;;;;;;;;;5092766;28;20040;-66
2023/09/03 07:28:40;;;;;;;9.32;6.75;;;;;;;;;;5087285;28;20072;-65
2023/09/03 07:31:06;;;;;;;8.93;7.13;;;;;;;;;;5091752;28;20506;-65
2023/09/03 07:33:32;;;;;;;10.45;6.78;;;;;;;;;;5090236;28;20606;-65
2023/09/03 07:35:59;;;;;;;7.07;5.85;;;;;;;;;;5089563;28;20038;-66
2023/09/03 07:38:27;;;;;;;7.32;5.82;;;;;;;;;;5089383;28;20521;-65
2023/09/03 07:40:53;;;;;;;7.15;5.53;;;;;;;;;;5090450;28;20050;-65
2023/09/03 07:43:19;;;;;;;7.85;6.85;;;;;;;;;;5079626;28;20098;-66
2023/09/03 07:45:45;;;;;;;8.52;6.97;;;;;;;;;;5088967;28;20032;-66
2023/09/03 07:48:11;;;;;;;8.45;6.65;;;;;;;;;;5092164;28;20554;-66
2023/09/03 07:50:40;;;;;;;8.63;6.88;;;;;;;;;;5091651;28;20040;-66
2023/09/03 07:53:06;;;;;;;9.65;5.88;;;;;;;;;;5090236;28;20413;-66
2023/09/03 07:55:32;;;;;;;10.88;5.72;;;;;;;;;;5091598;28;20032;-66
2023/09/03 07:57:59;;;;;;;8.68;5.75;;;;;;;;;;5091924;28;20032;-66
2023/09/03 08:00:25;;;;;;;6.63;5.20;;;;;;;;;;5082174;28;20041;-66
2023/09/03 08:02:51;;;;;;;9.30;6.07;;;;;;;;;;5089018;28;20035;-66
2023/09/03 08:05:17;;;;;;;9.43;6.63;;;;;;;;;;5091972;28;20040;-65
2023/09/03 08:07:43;;;;;;;8.20;6.60;;;;;;;;;;5091159;28;20111;-65
2023/09/03 08:10:09;;;;;;;10.10;6.07;;;;;;;;;;5091700;28;20123;-65
2023/09/03 08:12:35;;;;;;;7.85;4.93;;;;;;;;;;5091677;28;20059;-66
2023/09/03 08:15:01;;;;;;;8.38;5.65;;;;;;;;;;5091281;28;20046;-66
2023/09/03 08:17:30;;;;;;;6.40;4.50;;;;;;;;;;5078078;28;20036;-65
2023/09/03 08:19:56;;;;;;;7.47;5.32;;;;;;;;;;5091000;28;20047;-66
2023/09/03 08:22:22;;;;;;;8.25;4.80;;;;;;;;;;5089976;28;20040;-65
2023/09/03 08:24:48;;;;;;;8.80;5.10;;;;;;;;;;5078697;28;20037;-65
2023/09/03 08:27:14;;;;;;;7.82;5.47;;;;;;;;;;5080051;28;20481;-65
2023/09/03 08:29:40;;;;;;;7.75;5.82;;;;;;;;;;5083317;28;20081;-65
2023/09/03 08:32:06;;;;;;;7.95;6.93;;;;;;;;;;5091752;28;20500;-65
2023/09/03 08:34:32;;;;;;;7.68;6.40;;;;;;;;;;5091510;28;20569;-65
2023/09/03 08:36:58;;;;;;;11.90;7.65;;;;;;;;;;5088078;28;20032;-65
2023/09/03 08:39:24;;;;;;;8.30;6.32;;;;;;;;;;5090629;28;20511;-65
2023/09/03 08:41:50;;;;;;;9.32;6.30;;;;;;;;;;5091915;28;20032;-65
2023/09/03 08:44:19;;;;;;;9.32;7.00;;;;;;;;;;5091542;28;20043;-66
2023/09/03 08:46:47;;;;;;;5.45;3.80;;;;;;;;;;5091628;28;20518;-66
2023/09/03 08:49:14;;;;;;;5.35;3.53;;;;;;;;;;5083970;28;20501;-66
2023/09/03 08:51:40;;;;;;;9.07;3.80;;;;;;;;;;5086396;28;20112;-65
2023/09/03 08:54:07;;;;;;;6.10;4.78;;;;;;;;;;5081301;28;20469;-69
2023/09/03 08:56:34;;;;;;;7.97;4.60;;;;;;;;;;5082251;28;20055;-70
2023/09/03 08:59:00;;;;;;;5.38;3.92;;;;;;;;;;5088083;28;20040;-69
2023/09/03 09:01:27;;;;;;;7.05;4.82;;;;;;;;;;5088293;28;20048;-69
2023/09/03 09:03:54;;;;;;;6.60;3.95;;;;;;;;;;5090854;28;20032;-69
2023/09/03 09:06:20;;;;;;;4.72;4.13;;;;;;;;;;5088778;28;20043;-69
2023/09/03 09:08:46;;;;;;;5.25;3.58;;;;;;;;;;5087518;28;20135;-69
2023/09/03 09:11:14;;;;;;;5.40;3.67;;;;;;;;;;5089281;28;20086;-69
2023/09/03 09:13:42;;;;;;;7.00;3.72;;;;;;;;;;5088670;28;20401;-68
2023/09/03 09:16:08;;;;;;;5.57;3.35;;;;;;;;;;5090909;28;20532;-68
2023/09/03 09:18:34;;;;;;;4.72;3.20;;;;;;;;;;5084079;28;20080;-67
2023/09/03 09:21:01;;;;;;;6.72;3.60;;;;;;;;;;5089245;28;20072;-67
2023/09/03 09:23:27;;;;;;;5.28;3.67;;;;;;;;;;5089631;28;20043;-68
2023/09/03 09:25:59;;;;;;;5.95;3.25;;;;;;;;;;5084330;28;20111;-67
2023/09/03 09:28:26;;;;;;;4.90;3.45;;;;;;;;;;5085628;28;20040;-68
2023/09/03 09:30:53;;;;;;;4.97;3.25;;;;;;;;;;5092282;28;20040;-68
2023/09/03 09:33:19;;;;;;;4.90;3.40;;;;;;;;;;5093455;28;20036;-68
2023/09/03 09:35:45;;;;;;;4.97;3.28;;;;;;;;;;5094055;28;20043;-68
2023/09/03 09:38:11;;;;;;;6.75;3.25;;;;;;;;;;5093235;28;20481;-68
2023/09/03 09:40:37;;;;;;;4.32;3.50;;;;;;;;;;5092496;28;20047;-68
2023/09/03 09:43:04;;;;;;;3.20;2.08;;;;;;;;;;5093605;28;20040;-68
2023/09/03 09:45:31;;;;;;;10.43;3.03;;;;;;;;;;5091981;28;20127;-68
2023/09/03 09:48:04;;;;;;;2.97;2.50;;;;;;;;;;5091965;28;20032;-68
2023/09/03 09:50:33;;;;;;;4.05;2.45;;;;;;;;;;5086851;28;20044;-68
2023/09/03 09:53:00;;;;;;;5.40;2.55;;;;;;;;;;5092509;28;20040;-68
2023/09/03 09:55:27;;;;;;;2.72;1.90;;;;;;;;;;5092333;28;20052;-68
2023/09/03 09:57:54;;;;;;;2.10;1.90;;;;;;;;;;5092344;28;20097;-68
2023/09/03 10:00:35;;;;;;;2.83;1.90;;;;;;;;;;5090328;28;20044;-68
2023/09/03 10:03:02;;;;;;;3.70;1.80;;;;;;;;;;5090366;28;20056;-67
2023/09/03 10:05:28;;;;;;;4.00;2.03;;;;;;;;;;5091143;28;20043;-66
2023/09/03 10:07:54;;;;;;;5.60;2.20;;;;;;;;;;5089942;28;20032;-67
2023/09/03 10:10:20;;;;;;;2.95;2.33;;;;;;;;;;5092221;28;20040;-67
2023/09/03 10:12:47;;;;;;;3.65;2.00;;;;;;;;;;5082827;28;20226;-67
2023/09/03 10:15:13;;;;;;;3.78;2.10;;;;;;;;;;5093177;28;20093;-67
2023/09/03 10:17:40;;;;;;;3.10;1.77;;;;;;;;;;5091397;28;20101;-66
2023/09/03 10:20:09;;;;;;;3.72;1.70;;;;;;;;;;5092408;28;20050;-67
2023/09/03 10:22:36;;;;;;;3.53;1.90;;;;;;;;;;5083525;28;20123;-66
2023/09/03 10:25:06;;;;;;;2.65;2.03;;;;;;;;;;5091810;28;20040;-67
2023/09/03 10:27:36;;;;;;;4.00;2.30;;;;;;;;;;5089163;28;20528;-67
2023/09/03 10:30:04;;;;;;;5.00;2.00;;;;;;;;;;5087930;28;20560;-67
2023/09/03 10:32:30;;;;;;;3.30;2.13;;;;;;;;;;5093748;28;20035;-67
2023/09/03 10:34:56;;;;;;;5.43;2.53;;;;;;;;;;5093193;28;20090;-67
2023/09/03 10:37:35;;;;;;;4.03;2.47;;;;;;;;;;5090681;28;20082;-67
2023/09/03 10:40:17;;;;;;;2.60;2.00;;;;;;;;;;5088434;28;20033;-67
2023/09/03 10:42:44;;;;;;;3.70;2.15;;;;;;;;;;5072864;28;20048;-67
2023/09/03 10:45:13;;;;;;;3.75;2.13;;;;;;;;;;5075752;28;20051;-67
2023/09/03 10:47:57;;;;;;;2.63;2.42;;;;;;;;;;5093053;28;20081;-67
2023/09/03 10:50:45;;;;;;;4.10;2.58;;;;;;;;;;5088516;28;20119;-67
2023/09/03 10:53:38;;;;;;;3.67;2.22;;;;;;;;;;5082203;28;20048;-67
2023/09/03 10:56:11;;;;;;;2.88;1.88;;;;;;;;;;5085739;28;20523;-67
2023/09/03 10:58:54;;;;;;;5.95;1.90;;;;;;;;;;5086334;28;20052;-67
2023/09/03 11:01:22;;;;;;;2.72;1.75;;;;;;;;;;5088941;28;20044;-67
2023/09/03 11:03:52;;;;;;;3.60;1.85;;;;;;;;;;5093166;28;20040;-67
2023/09/03 11:06:21;;;;;;;4.13;2.00;;;;;;;;;;5083855;28;20033;-67
2023/09/03 11:08:48;;;;;;;3.30;1.75;;;;;;;;;;5090469;28;20550;-67
2023/09/03 11:11:21;;;;;;;2.63;1.80;;;;;;;;;;5088657;28;20089;-67
2023/09/03 11:13:50;;;;;;;3.65;1.80;;;;;;;;;;5084234;28;20119;-67
2023/09/03 11:16:16;;;;;;;2.22;1.90;;;;;;;;;;5091921;28;20047;-68
2023/09/03 11:18:49;;;;;;;3.58;1.60;;;;;;;;;;5091925;28;20051;-67
2023/09/03 11:21:15;;;;;;;3.47;2.05;;;;;;;;;;5087829;28;20047;-67
2023/09/03 11:23:58;;;;;;;2.85;1.80;;;;;;;;;;5090406;28;20043;-67
2023/09/03 11:26:24;;;;;;;2.55;1.50;;;;;;;;;;5091543;28;20055;-67
2023/09/03 11:28:50;;;;;;;3.75;1.90;;;;;;;;;;5090767;28;20108;-67
2023/09/03 11:31:16;;;;;;;3.70;2.00;;;;;;;;;;5089133;28;20044;-67
2023/09/03 11:33:42;;;;;;;4.30;1.92;;;;;;;;;;5090647;28;20165;-68
2023/09/03 11:36:08;;;;;;;4.93;2.13;;;;;;;;;;5090708;28;20082;-67
2023/09/03 11:38:34;;;;;;;3.28;1.80;;;;;;;;;;5088348;28;20044;-67
2023/09/03 11:41:01;;;;;;;2.65;1.80;;;;;;;;;;5090603;28;20043;-67
2023/09/03 11:43:28;;;;;;;3.85;1.60;;;;;;;;;;5089948;28;20401;-67
2023/09/03 11:45:54;;;;;;;3.10;1.70;;;;;;;;;;5090374;28;20035;-67
2023/09/03 11:48:30;;;;;;;1.60;1.42;;;;;;;;;;5089435;28;20036;-67
2023/09/03 11:50:56;;;;;;;3.03;1.58;;;;;;;;;;5088160;28;20040;-67
2023/09/03 11:53:23;;;;;;;2.58;1.42;;;;;;;;;;5090641;28;20028;-67
2023/09/03 11:55:55;;;;;;;1.92;1.55;;;;;;;;;;5088646;28;20501;-66
2023/09/03 11:58:24;;;;;;;3.15;1.60;;;;;;;;;;5091470;28;20066;-67
2023/09/03 12:00:50;;;;;;;2.95;1.67;;;;;;;;;;5085748;28;20101;-67
2023/09/03 12:03:17;;;;;;;2.50;1.60;;;;;;;;;;5086955;28;20119;-67
2023/09/03 12:05:43;;;;;;;2.17;1.73;;;;;;;;;;5091684;28;20043;-66
2023/09/03 12:08:09;;;;;;;3.85;2.00;;;;;;;;;;5091251;28;20036;-67
2023/09/03 12:10:35;;;;;;;2.45;1.70;;;;;;;;;;5087435;28;20139;-67
2023/09/03 12:13:02;;;;;;;2.40;1.50;;;;;;;;;;5089138;28;20050;-67
2023/09/03 12:15:29;;;;;;;3.47;1.85;;;;;;;;;;5088146;28;20116;-67
2023/09/03 12:18:06;;;;;;;3.03;1.55;;;;;;;;;;5087385;28;20044;-67
2023/09/03 12:20:33;;;;;;;4.05;1.88;;;;;;;;;;5089726;28;20119;-66
2023/09/03 12:23:26;;;;;;;3.15;1.80;;;;;;;;;;5091255;28;20529;-66
2023/09/03 12:25:52;;;;;;;3.55;1.80;;;;;;;;;;5084148;28;20062;-66
2023/09/03 12:28:18;;;;;;;2.53;1.80;;;;;;;;;;5087566;28;20592;-67
2023/09/03 12:30:57;;;;;;;3.22;1.63;;;;;;;;;;5083756;28;20077;-67
2023/09/03 12:33:27;;;;;;;4.32;1.80;;;;;;;;;;5090533;28;20042;-66
2023/09/03 12:36:05;;;;;;;4.33;1.77;;;;;;;;;;5091968;28;20043;-66
2023/09/03 12:38:31;;;;;;;2.58;1.60;;;;;;;;;;5090266;28;20298;-66
2023/09/03 12:40:57;;;;;;;1.92;1.38;;;;;;;;;;5091367;28;20032;-67
2023/09/03 12:43:36;;;;;;;2.45;1.38;;;;;;;;;;5090794;28;20393;-66
2023/09/03 12:46:02;;;;;;;2.97;1.40;;;;;;;;;;5091875;28;20040;-67
2023/09/03 12:48:29;;;;;;;2.88;1.60;;;;;;;;;;5091014;28;20112;-67
2023/09/03 12:50:55;;;;;;;2.58;1.17;;;;;;;;;;5090896;22;20047;-69
2023/09/03 12:53:21;;;;;;;2.72;1.00;;;;;;;;;;5053152;28;20409;-69
2023/09/03 12:55:47;;;;;;;1.65;0.95;;;;;;;;;;5071089;28;20037;-69
2023/09/03 12:58:13;;;;;;;3.10;1.20;;;;;;;;;;5071208;28;20047;-69
2023/09/03 13:00:40;;;;;;;2.55;1.10;;;;;;;;;;5049169;28;20410;-69
2023/09/03 13:03:06;;;;;;;2.08;1.38;;;;;;;;;;5074855;28;20466;-69
2023/09/03 13:05:32;;;;;;;2.20;1.40;;;;;;;;;;5075354;28;20056;-69
2023/09/03 13:07:58;;;;;;;1.73;1.13;;;;;;;;;;5073713;28;20375;-69
2023/09/03 13:10:24;;;;;;;3.55;1.40;;;;;;;;;;5073303;28;20135;-69
2023/09/03 13:12:50;;;;;;;1.88;1.17;;;;;;;;;;5074775;28;20040;-69
2023/09/03 13:15:16;;;;;;;2.10;1.23;;;;;;;;;;5075022;28;20037;-67
2023/09/03 13:17:42;;;;;;;3.28;1.27;;;;;;;;;;5075053;28;20044;-67
2023/09/03 13:20:08;;;;;;;1.35;1.25;;;;;;;;;;5072624;28;20075;-67
2023/09/03 13:22:34;;;;;;;1.42;1.00;;;;;;;;;;5074713;28;20048;-67
2023/09/03 13:25:00;;;;;;;1.50;1.30;;;;;;;;;;5056683;28;20033;-67
2023/09/03 13:27:26;;;;;;;2.00;1.20;;;;;;;;;;5073968;28;20489;-67
2023/09/03 13:29:52;;;;;;;2.92;1.20;;;;;;;;;;5073286;28;20036;-67
2023/09/03 13:32:18;;;;;;;2.90;1.30;;;;;;;;;;5074555;28;20040;-66
2023/09/03 13:34:45;;;;;;;2.22;1.20;;;;;;;;;;5073201;28;20044;-67
2023/09/03 13:37:11;;;;;;;3.08;1.20;;;;;;;;;;5074838;28;20101;-66
2023/09/03 13:39:37;;;;;;;2.20;1.10;;;;;;;;;;5070598;28;20123;-67
2023/09/03 13:42:03;;;;;;;1.25;1.15;;;;;;;;;;5057979;28;20049;-69
2023/09/03 13:44:29;;;;;;;1.30;1.20;;;;;;;;;;5074243;28;20037;-69
2023/09/03 13:46:56;;;;;;;2.35;1.13;;;;;;;;;;5074514;28;20047;-69
2023/09/03 13:49:22;;;;;;;2.00;1.25;;;;;;;;;;5059784;28;20094;-69
2023/09/03 13:51:48;;;;;;;1.50;1.15;;;;;;;;;;5074038;28;20036;-69
2023/09/03 13:54:14;;;;;;;1.63;1.15;;;;;;;;;;5072730;28;20059;-69
2023/09/03 13:56:40;;;;;;;3.17;1.10;;;;;;;;;;5074517;28;20044;-69
2023/09/03 13:59:06;;;;;;;1.88;1.10;;;;;;;;;;5068636;28;20048;-69
2023/09/03 14:01:33;;;;;;;2.88;1.00;;;;;;;;;;5073978;28;20124;-69
2023/09/03 14:03:59;;;;;;;2.78;1.13;;;;;;;;;;5073625;28;20040;-69
2023/09/03 14:06:25;;;;;;;1.20;1.10;;;;;;;;;;5065237;28;20044;-69
2023/09/03 14:08:51;;;;;;;1.88;1.15;;;;;;;;;;5073166;28;20410;-69
2023/09/03 14:11:17;;;;;;;1.90;1.05;;;;;;;;;;5065495;28;20040;-69
2023/09/03 14:13:46;;;;;;;3.53;1.00;;;;;;;;;;5064498;28;20037;-69
2023/09/03 14:16:13;;;;;;;1.73;0.98;;;;;;;;;;5073974;28;20044;-67
2023/09/03 14:18:39;;;;;;;1.45;1.00;;;;;;;;;;5064767;28;20043;-66
2023/09/03 14:21:08;;;;;;;4.13;1.20;;;;;;;;;;5073507;28;20043;-67
2023/09/03 14:23:34;;;;;;;3.33;0.90;;;;;;;;;;5073500;28;20495;-67
2023/09/03 14:26:00;;;;;;;2.67;1.10;;;;;;;;;;5073683;28;20041;-67
2023/09/03 14:28:26;;;;;;;0.98;0.90;;;;;;;;;;5064209;28;20220;-67
2023/09/03 14:30:52;;;;;;;2.47;1.10;;;;;;;;;;5073346;28;20036;-67
2023/09/03 14:33:18;;;;;;;6.53;1.52;;;;;;;;;;5073107;28;20040;-67
2023/09/03 14:35:45;;;;;;;1.73;1.08;;;;;;;;;;5073424;28;20041;-67
2023/09/03 14:38:11;;;;;;;2.05;1.15;;;;;;;;;;5072182;28;20048;-67
2023/09/03 14:40:38;;;;;;;2.25;1.27;;;;;;;;;;5073002;28;20070;-66
2023/09/03 14:43:04;;;;;;;1.08;1.00;;;;;;;;;;5072487;28;20040;-67
2023/09/03 14:45:30;;;;;;;1.50;1.40;;;;;;;;;;5064999;28;20071;-67